sensor_id;sensor_type;location;lat;lon;timestamp;temperature;humidity
12720;DHT22;6424;48.520;11.228;2024-02-16T00:01:38;6.30;99.90
12720;DHT22;6424;48.520;11.228;2024-02-16T00:04:23;6.30;99.90
12720;DHT22;6424;48.520;11.228;2024-02-16T00:07:08;6.30;99.90
12720;DHT22;6424;48.520;11.228;2024-02-16T00:09:52;6.20;99.90
12720;DHT22;6424;48.520;11.228;2024-02-16T00:12:37;6.10;99.90
12720;DHT22;6424;48.520;11.228;2024-02-16T00:15:22;6.10;99.90
12720;DHT22;6424;48.520;11.228;2024-02-16T00:18:07;6.10;99.90
12720;DHT22;6424;48.520;11.228;2024-02-16T00:20:51;6.20;99.90
12720;DHT22;6424;48.520;11.228;2024-02-16T00:23:35;6.20;99.90
12720;DHT22;6424;48.520;11.228;2024-02-16T00:26:19;6.30;99.90
12720;DHT22;6424;48.520;11.228;2024-02-16T00:29:05;6.30;99.90
12720;DHT22;6424;48.520;11.228;2024-02-16T00:31:50;6.40;99.90
12720;DHT22;6424;48.520;11.228;2024-02-16T00:34:35;6.40;99.90
12720;DHT22;6424;48.520;11.228;2024-02-16T00:37:20;6.50;99.90
12720;DHT22;6424;48.520;11.228;2024-02-16T00:40:05;6.50;99.90
12720;DHT22;6424;48.520;11.228;2024-02-16T00:42:50;6.50;99.90
12720;DHT22;6424;48.520;11.228;2024-02-16T00:45:34;6.50;99.90
12720;DHT22;6424;48.520;11.228;2024-02-16T00:48:18;6.50;99.90
12720;DHT22;6424;48.520;11.228;2024-02-16T00:51:03;6.40;99.90
12720;DHT22;6424;48.520;11.228;2024-02-16T00:53:47;6.40;99.90
12720;DHT22;6424;48.520;11.228;2024-02-16T00:56:32;6.40;99.90
12720;DHT22;6424;48.520;11.228;2024-02-16T00:59:16;6.30;99.90
12720;DHT22;6424;48.520;11.228;2024-02-16T01:02:01;6.20;99.90
12720;DHT22;6424;48.520;11.228;2024-02-16T01:04:46;6.20;99.90
12720;DHT22;6424;48.520;11.228;2024-02-16T01:07:30;6.20;99.90
12720;DHT22;6424;48.520;11.228;2024-02-16T01:10:16;6.20;99.90
12720;DHT22;6424;48.520;11.228;2024-02-16T01:13:00;6.10;99.90
12720;DHT22;6424;48.520;11.228;2024-02-16T01:15:44;6.10;99.90
12720;DHT22;6424;48.520;11.228;2024-02-16T01:18:29;6.10;99.90
12720;DHT22;6424;48.520;11.228;2024-02-16T01:21:13;6.10;99.90
12720;DHT22;6424;48.520;11.228;2024-02-16T01:23:57;6.00;99.90
12720;DHT22;6424;48.520;11.228;2024-02-16T01:26:43;6.00;99.90
12720;DHT22;6424;48.520;11.228;2024-02-16T01:29:29;6.00;99.90
12720;DHT22;6424;48.520;11.228;2024-02-16T01:32:13;6.00;99.90
12720;DHT22;6424;48.520;11.228;2024-02-16T01:34:58;6.00;99.90
12720;DHT22;6424;48.520;11.228;2024-02-16T01:37:42;5.90;99.90
12720;DHT22;6424;48.520;11.228;2024-02-16T01:40:28;5.90;99.90
12720;DHT22;6424;48.520;11.228;2024-02-16T01:43:12;5.90;99.90
12720;DHT22;6424;48.520;11.228;2024-02-16T01:45:56;5.80;99.90
12720;DHT22;6424;48.520;11.228;2024-02-16T01:48:42;5.80;99.90
12720;DHT22;6424;48.520;11.228;2024-02-16T01:51:27;5.80;99.90
12720;DHT22;6424;48.520;11.228;2024-02-16T01:54:12;5.80;99.90
12720;DHT22;6424;48.520;11.228;2024-02-16T01:56:56;5.80;99.90
12720;DHT22;6424;48.520;11.228;2024-02-16T01:59:41;5.80;99.90
12720;DHT22;6424;48.520;11.228;2024-02-16T02:02:26;5.80;99.90
12720;DHT22;6424;48.520;11.228;2024-02-16T02:05:11;5.80;99.90
12720;DHT22;6424;48.520;11.228;2024-02-16T02:07:56;5.80;99.90
12720;DHT22;6424;48.520;11.228;2024-02-16T02:10:40;5.70;99.90
12720;DHT22;6424;48.520;11.228;2024-02-16T02:13:24;5.70;99.90
12720;DHT22;6424;48.520;11.228;2024-02-16T02:16:10;5.70;99.90
12720;DHT22;6424;48.520;11.228;2024-02-16T02:18:54;5.70;99.90
12720;DHT22;6424;48.520;11.228;2024-02-16T02:21:38;5.70;99.90
12720;DHT22;6424;48.520;11.228;2024-02-16T02:24:23;5.60;99.90
12720;DHT22;6424;48.520;11.228;2024-02-16T02:27:07;5.60;99.90
12720;DHT22;6424;48.520;11.228;2024-02-16T02:29:52;5.60;99.90
12720;DHT22;6424;48.520;11.228;2024-02-16T02:32:36;5.50;99.90
12720;DHT22;6424;48.520;11.228;2024-02-16T02:35:20;5.50;99.90
12720;DHT22;6424;48.520;11.228;2024-02-16T02:38:04;5.40;99.90
12720;DHT22;6424;48.520;11.228;2024-02-16T02:40:49;5.40;99.90
12720;DHT22;6424;48.520;11.228;2024-02-16T02:43:34;5.40;99.90
12720;DHT22;6424;48.520;11.228;2024-02-16T02:46:18;5.40;99.90
12720;DHT22;6424;48.520;11.228;2024-02-16T02:49:03;5.40;99.90
12720;DHT22;6424;48.520;11.228;2024-02-16T02:51:47;5.40;99.90
12720;DHT22;6424;48.520;11.228;2024-02-16T02:54:31;5.40;99.90
12720;DHT22;6424;48.520;11.228;2024-02-16T02:57:15;5.40;99.90
12720;DHT22;6424;48.520;11.228;2024-02-16T03:00:07;5.40;99.90
12720;DHT22;6424;48.520;11.228;2024-02-16T03:02:54;5.40;99.90
12720;DHT22;6424;48.520;11.228;2024-02-16T03:05:41;5.40;99.90
12720;DHT22;6424;48.520;11.228;2024-02-16T03:08:26;5.40;99.90
12720;DHT22;6424;48.520;11.228;2024-02-16T03:11:10;5.40;99.90
12720;DHT22;6424;48.520;11.228;2024-02-16T03:13:55;5.40;99.90
12720;DHT22;6424;48.520;11.228;2024-02-16T03:16:39;5.40;99.90
12720;DHT22;6424;48.520;11.228;2024-02-16T03:19:23;5.50;99.90
12720;DHT22;6424;48.520;11.228;2024-02-16T03:22:07;5.50;99.90
12720;DHT22;6424;48.520;11.228;2024-02-16T03:24:51;5.50;99.90
12720;DHT22;6424;48.520;11.228;2024-02-16T03:27:35;5.50;99.90
12720;DHT22;6424;48.520;11.228;2024-02-16T03:30:19;5.50;99.90
12720;DHT22;6424;48.520;11.228;2024-02-16T03:33:04;5.50;99.90
12720;DHT22;6424;48.520;11.228;2024-02-16T03:35:48;5.50;99.90
12720;DHT22;6424;48.520;11.228;2024-02-16T03:38:33;5.40;99.90
12720;DHT22;6424;48.520;11.228;2024-02-16T03:41:21;5.40;99.90
12720;DHT22;6424;48.520;11.228;2024-02-16T03:44:07;5.40;99.90
12720;DHT22;6424;48.520;11.228;2024-02-16T03:46:51;5.40;99.90
12720;DHT22;6424;48.520;11.228;2024-02-16T03:49:35;5.40;99.90
12720;DHT22;6424;48.520;11.228;2024-02-16T03:52:20;5.50;99.90
12720;DHT22;6424;48.520;11.228;2024-02-16T03:55:05;5.50;99.90
12720;DHT22;6424;48.520;11.228;2024-02-16T03:57:49;5.50;99.90
12720;DHT22;6424;48.520;11.228;2024-02-16T04:00:33;5.50;99.90
12720;DHT22;6424;48.520;11.228;2024-02-16T04:03:18;5.50;99.90
12720;DHT22;6424;48.520;11.228;2024-02-16T04:06:03;5.50;99.90
12720;DHT22;6424;48.520;11.228;2024-02-16T04:08:49;5.50;99.90
12720;DHT22;6424;48.520;11.228;2024-02-16T04:11:34;5.50;99.90
12720;DHT22;6424;48.520;11.228;2024-02-16T04:14:18;5.50;99.90
12720;DHT22;6424;48.520;11.228;2024-02-16T04:17:03;5.40;99.90
12720;DHT22;6424;48.520;11.228;2024-02-16T04:19:48;5.40;99.90
12720;DHT22;6424;48.520;11.228;2024-02-16T04:22:32;5.40;99.90
12720;DHT22;6424;48.520;11.228;2024-02-16T04:25:21;5.40;99.90
12720;DHT22;6424;48.520;11.228;2024-02-16T04:28:05;5.40;99.90
12720;DHT22;6424;48.520;11.228;2024-02-16T04:30:50;5.40;99.90
12720;DHT22;6424;48.520;11.228;2024-02-16T04:33:34;5.30;99.90
12720;DHT22;6424;48.520;11.228;2024-02-16T04:36:18;5.20;99.90
12720;DHT22;6424;48.520;11.228;2024-02-16T04:39:02;5.20;99.90
12720;DHT22;6424;48.520;11.228;2024-02-16T04:41:47;5.20;99.90
12720;DHT22;6424;48.520;11.228;2024-02-16T04:44:32;5.10;99.90
12720;DHT22;6424;48.520;11.228;2024-02-16T04:47:16;5.10;99.90
12720;DHT22;6424;48.520;11.228;2024-02-16T04:50:01;5.10;99.90
12720;DHT22;6424;48.520;11.228;2024-02-16T04:52:45;5.10;99.90
12720;DHT22;6424;48.520;11.228;2024-02-16T04:55:30;5.00;99.90
12720;DHT22;6424;48.520;11.228;2024-02-16T04:58:15;5.00;99.90
12720;DHT22;6424;48.520;11.228;2024-02-16T05:00:59;5.00;99.90
12720;DHT22;6424;48.520;11.228;2024-02-16T05:03:44;4.90;99.90
12720;DHT22;6424;48.520;11.228;2024-02-16T05:06:28;4.90;99.90
12720;DHT22;6424;48.520;11.228;2024-02-16T05:09:13;4.80;99.90
12720;DHT22;6424;48.520;11.228;2024-02-16T05:12:01;4.70;99.90
12720;DHT22;6424;48.520;11.228;2024-02-16T05:14:50;4.70;99.90
12720;DHT22;6424;48.520;11.228;2024-02-16T05:17:35;4.60;99.90
12720;DHT22;6424;48.520;11.228;2024-02-16T05:20:19;4.50;99.90
12720;DHT22;6424;48.520;11.228;2024-02-16T05:23:04;4.50;99.90
12720;DHT22;6424;48.520;11.228;2024-02-16T05:25:48;4.40;99.90
12720;DHT22;6424;48.520;11.228;2024-02-16T05:28:32;4.40;99.90
12720;DHT22;6424;48.520;11.228;2024-02-16T05:31:17;4.30;99.90
12720;DHT22;6424;48.520;11.228;2024-02-16T05:34:05;4.30;99.90
12720;DHT22;6424;48.520;11.228;2024-02-16T05:36:50;4.20;99.90
12720;DHT22;6424;48.520;11.228;2024-02-16T05:39:36;4.20;99.90
12720;DHT22;6424;48.520;11.228;2024-02-16T05:42:37;4.10;99.90
12720;DHT22;6424;48.520;11.228;2024-02-16T05:45:21;4.10;99.90
12720;DHT22;6424;48.520;11.228;2024-02-16T05:48:05;4.00;99.90
12720;DHT22;6424;48.520;11.228;2024-02-16T05:50:49;4.00;99.90
12720;DHT22;6424;48.520;11.228;2024-02-16T05:53:34;3.90;99.90
12720;DHT22;6424;48.520;11.228;2024-02-16T05:56:18;3.90;99.90
12720;DHT22;6424;48.520;11.228;2024-02-16T05:59:03;3.90;99.90
12720;DHT22;6424;48.520;11.228;2024-02-16T06:01:47;3.90;99.90
12720;DHT22;6424;48.520;11.228;2024-02-16T06:04:31;3.90;99.90
12720;DHT22;6424;48.520;11.228;2024-02-16T06:07:15;3.80;99.90
12720;DHT22;6424;48.520;11.228;2024-02-16T06:09:59;3.80;99.90
12720;DHT22;6424;48.520;11.228;2024-02-16T06:12:44;3.80;99.90
12720;DHT22;6424;48.520;11.228;2024-02-16T06:15:28;3.80;99.90
12720;DHT22;6424;48.520;11.228;2024-02-16T06:18:12;3.80;99.90
12720;DHT22;6424;48.520;11.228;2024-02-16T06:20:56;3.80;99.90
12720;DHT22;6424;48.520;11.228;2024-02-16T06:23:40;3.70;99.90
12720;DHT22;6424;48.520;11.228;2024-02-16T06:26:24;3.70;99.90
12720;DHT22;6424;48.520;11.228;2024-02-16T06:29:08;3.80;99.90
12720;DHT22;6424;48.520;11.228;2024-02-16T06:31:53;3.70;99.90
12720;DHT22;6424;48.520;11.228;2024-02-16T06:34:37;3.70;99.90
12720;DHT22;6424;48.520;11.228;2024-02-16T06:37:21;3.80;99.90
12720;DHT22;6424;48.520;11.228;2024-02-16T06:40:06;3.80;99.90
12720;DHT22;6424;48.520;11.228;2024-02-16T06:42:54;3.80;99.90
12720;DHT22;6424;48.520;11.228;2024-02-16T06:45:38;3.90;99.90
12720;DHT22;6424;48.520;11.228;2024-02-16T06:48:23;3.90;99.90
12720;DHT22;6424;48.520;11.228;2024-02-16T06:51:07;3.90;99.90
12720;DHT22;6424;48.520;11.228;2024-02-16T06:53:52;4.00;99.90
12720;DHT22;6424;48.520;11.228;2024-02-16T06:56:37;4.00;99.90
12720;DHT22;6424;48.520;11.228;2024-02-16T06:59:22;4.10;99.90
12720;DHT22;6424;48.520;11.228;2024-02-16T07:02:06;4.20;99.90
12720;DHT22;6424;48.520;11.228;2024-02-16T07:04:51;4.20;99.90
12720;DHT22;6424;48.520;11.228;2024-02-16T07:07:35;4.30;99.90
12720;DHT22;6424;48.520;11.228;2024-02-16T07:10:19;4.30;99.90
12720;DHT22;6424;48.520;11.228;2024-02-16T07:13:03;4.40;99.90
12720;DHT22;6424;48.520;11.228;2024-02-16T07:15:48;4.50;99.90
12720;DHT22;6424;48.520;11.228;2024-02-16T07:18:33;4.60;99.90
12720;DHT22;6424;48.520;11.228;2024-02-16T07:21:17;4.70;99.90
12720;DHT22;6424;48.520;11.228;2024-02-16T07:24:04;4.80;99.90
12720;DHT22;6424;48.520;11.228;2024-02-16T07:26:49;5.00;99.90
12720;DHT22;6424;48.520;11.228;2024-02-16T07:29:33;5.10;99.90
12720;DHT22;6424;48.520;11.228;2024-02-16T07:32:20;5.40;99.90
12720;DHT22;6424;48.520;11.228;2024-02-16T07:35:05;5.90;99.90
12720;DHT22;6424;48.520;11.228;2024-02-16T07:37:51;6.50;99.90
12720;DHT22;6424;48.520;11.228;2024-02-16T07:40:38;7.10;99.90
12720;DHT22;6424;48.520;11.228;2024-02-16T07:43:23;7.60;99.90
12720;DHT22;6424;48.520;11.228;2024-02-16T07:46:10;8.00;99.90
12720;DHT22;6424;48.520;11.228;2024-02-16T07:48:54;8.30;99.90
12720;DHT22;6424;48.520;11.228;2024-02-16T07:51:40;8.50;99.90
12720;DHT22;6424;48.520;11.228;2024-02-16T07:54:24;8.70;99.90
12720;DHT22;6424;48.520;11.228;2024-02-16T07:57:08;8.80;99.90
12720;DHT22;6424;48.520;11.228;2024-02-16T07:59:52;8.70;99.90
12720;DHT22;6424;48.520;11.228;2024-02-16T08:02:37;8.60;99.90
12720;DHT22;6424;48.520;11.228;2024-02-16T08:05:23;8.50;99.90
12720;DHT22;6424;48.520;11.228;2024-02-16T08:08:08;8.40;99.90
12720;DHT22;6424;48.520;11.228;2024-02-16T08:10:53;8.30;99.90
12720;DHT22;6424;48.520;11.228;2024-02-16T08:13:38;8.20;99.90
12720;DHT22;6424;48.520;11.228;2024-02-16T08:16:22;8.20;99.90
12720;DHT22;6424;48.520;11.228;2024-02-16T08:19:06;8.20;99.90
12720;DHT22;6424;48.520;11.228;2024-02-16T08:21:50;8.20;99.90
12720;DHT22;6424;48.520;11.228;2024-02-16T08:24:35;8.30;99.90
12720;DHT22;6424;48.520;11.228;2024-02-16T08:27:20;8.30;99.90
12720;DHT22;6424;48.520;11.228;2024-02-16T08:30:05;8.30;99.90
12720;DHT22;6424;48.520;11.228;2024-02-16T08:32:50;8.20;99.90
12720;DHT22;6424;48.520;11.228;2024-02-16T08:35:34;8.20;99.90
12720;DHT22;6424;48.520;11.228;2024-02-16T08:38:18;8.30;99.90
12720;DHT22;6424;48.520;11.228;2024-02-16T08:41:02;8.40;99.90
12720;DHT22;6424;48.520;11.228;2024-02-16T08:43:47;8.40;99.90
12720;DHT22;6424;48.520;11.228;2024-02-16T08:46:31;8.60;99.90
12720;DHT22;6424;48.520;11.228;2024-02-16T08:49:16;8.60;99.90
12720;DHT22;6424;48.520;11.228;2024-02-16T08:52:01;8.70;99.90
12720;DHT22;6424;48.520;11.228;2024-02-16T08:54:45;8.90;99.90
12720;DHT22;6424;48.520;11.228;2024-02-16T08:57:31;8.90;99.90
12720;DHT22;6424;48.520;11.228;2024-02-16T09:00:16;9.00;99.90
12720;DHT22;6424;48.520;11.228;2024-02-16T09:03:01;9.00;99.90
12720;DHT22;6424;48.520;11.228;2024-02-16T09:05:50;9.10;99.90
12720;DHT22;6424;48.520;11.228;2024-02-16T09:08:34;9.20;99.90
12720;DHT22;6424;48.520;11.228;2024-02-16T09:11:19;9.20;99.90
12720;DHT22;6424;48.520;11.228;2024-02-16T09:14:04;9.30;99.90
12720;DHT22;6424;48.520;11.228;2024-02-16T09:16:49;9.40;99.90
12720;DHT22;6424;48.520;11.228;2024-02-16T09:19:35;9.50;99.90
12720;DHT22;6424;48.520;11.228;2024-02-16T09:22:19;9.60;99.90
12720;DHT22;6424;48.520;11.228;2024-02-16T09:25:03;9.70;99.90
12720;DHT22;6424;48.520;11.228;2024-02-16T09:27:48;9.80;99.90
12720;DHT22;6424;48.520;11.228;2024-02-16T09:30:32;9.90;99.90
12720;DHT22;6424;48.520;11.228;2024-02-16T09:33:17;10.00;99.90
12720;DHT22;6424;48.520;11.228;2024-02-16T09:36:01;10.10;99.90
12720;DHT22;6424;48.520;11.228;2024-02-16T09:38:45;10.20;99.90
12720;DHT22;6424;48.520;11.228;2024-02-16T09:41:33;10.30;99.90
12720;DHT22;6424;48.520;11.228;2024-02-16T09:44:20;10.50;99.90
12720;DHT22;6424;48.520;11.228;2024-02-16T09:47:07;10.60;99.90
12720;DHT22;6424;48.520;11.228;2024-02-16T09:49:56;10.70;99.90
12720;DHT22;6424;48.520;11.228;2024-02-16T09:52:41;10.90;99.90
12720;DHT22;6424;48.520;11.228;2024-02-16T09:55:32;10.90;99.90
12720;DHT22;6424;48.520;11.228;2024-02-16T09:58:18;11.00;99.90
12720;DHT22;6424;48.520;11.228;2024-02-16T10:01:04;11.10;99.90
12720;DHT22;6424;48.520;11.228;2024-02-16T10:03:49;11.30;99.90
12720;DHT22;6424;48.520;11.228;2024-02-16T10:06:46;11.50;99.90
12720;DHT22;6424;48.520;11.228;2024-02-16T10:09:31;11.80;99.90
12720;DHT22;6424;48.520;11.228;2024-02-16T10:12:18;11.90;99.90
12720;DHT22;6424;48.520;11.228;2024-02-16T10:15:03;12.00;99.90
12720;DHT22;6424;48.520;11.228;2024-02-16T10:18:02;12.10;99.90
12720;DHT22;6424;48.520;11.228;2024-02-16T10:20:46;12.10;99.90
12720;DHT22;6424;48.520;11.228;2024-02-16T10:23:31;12.10;99.90
12720;DHT22;6424;48.520;11.228;2024-02-16T10:26:15;12.10;99.90
12720;DHT22;6424;48.520;11.228;2024-02-16T10:28:59;12.20;99.90
12720;DHT22;6424;48.520;11.228;2024-02-16T10:31:44;12.30;99.90
12720;DHT22;6424;48.520;11.228;2024-02-16T10:34:29;12.30;99.90
12720;DHT22;6424;48.520;11.228;2024-02-16T10:37:16;12.40;99.90
12720;DHT22;6424;48.520;11.228;2024-02-16T10:40:01;12.40;99.90
12720;DHT22;6424;48.520;11.228;2024-02-16T10:42:46;12.40;99.90
12720;DHT22;6424;48.520;11.228;2024-02-16T10:45:35;12.40;99.90
12720;DHT22;6424;48.520;11.228;2024-02-16T10:48:20;12.50;99.90
12720;DHT22;6424;48.520;11.228;2024-02-16T10:51:06;12.50;99.90
12720;DHT22;6424;48.520;11.228;2024-02-16T10:53:52;12.60;99.90
12720;DHT22;6424;48.520;11.228;2024-02-16T10:56:40;12.80;99.90
12720;DHT22;6424;48.520;11.228;2024-02-16T10:59:24;12.80;99.90
12720;DHT22;6424;48.520;11.228;2024-02-16T11:02:10;12.90;99.90
12720;DHT22;6424;48.520;11.228;2024-02-16T11:04:55;13.00;99.90
12720;DHT22;6424;48.520;11.228;2024-02-16T11:07:40;13.30;99.90
12720;DHT22;6424;48.520;11.228;2024-02-16T11:10:24;13.60;99.90
12720;DHT22;6424;48.520;11.228;2024-02-16T11:13:08;13.90;99.90
12720;DHT22;6424;48.520;11.228;2024-02-16T11:16:01;14.20;99.90
12720;DHT22;6424;48.520;11.228;2024-02-16T11:18:46;14.30;99.90
12720;DHT22;6424;48.520;11.228;2024-02-16T11:21:33;14.50;99.90
12720;DHT22;6424;48.520;11.228;2024-02-16T11:24:17;14.50;99.90
12720;DHT22;6424;48.520;11.228;2024-02-16T11:27:05;14.50;99.90
12720;DHT22;6424;48.520;11.228;2024-02-16T11:29:50;14.40;99.90
12720;DHT22;6424;48.520;11.228;2024-02-16T11:32:34;14.30;99.90
12720;DHT22;6424;48.520;11.228;2024-02-16T11:35:19;14.30;99.90
12720;DHT22;6424;48.520;11.228;2024-02-16T11:38:04;14.10;99.90
12720;DHT22;6424;48.520;11.228;2024-02-16T11:43:42;14.20;99.90
12720;DHT22;6424;48.520;11.228;2024-02-16T11:46:26;14.30;99.90
12720;DHT22;6424;48.520;11.228;2024-02-16T11:49:12;14.40;99.90
12720;DHT22;6424;48.520;11.228;2024-02-16T11:52:04;14.50;99.90
12720;DHT22;6424;48.520;11.228;2024-02-16T11:54:48;14.50;99.90
12720;DHT22;6424;48.520;11.228;2024-02-16T11:57:33;14.50;99.90
12720;DHT22;6424;48.520;11.228;2024-02-16T12:00:17;14.40;99.90
12720;DHT22;6424;48.520;11.228;2024-02-16T12:03:02;14.40;99.90
12720;DHT22;6424;48.520;11.228;2024-02-16T12:06:05;14.40;99.90
12720;DHT22;6424;48.520;11.228;2024-02-16T12:08:50;14.60;99.90
12720;DHT22;6424;48.520;11.228;2024-02-16T12:11:36;14.70;99.90
12720;DHT22;6424;48.520;11.228;2024-02-16T12:17:07;15.00;99.90
12720;DHT22;6424;48.520;11.228;2024-02-16T12:19:52;15.10;99.90
12720;DHT22;6424;48.520;11.228;2024-02-16T12:22:36;15.30;99.90
12720;DHT22;6424;48.520;11.228;2024-02-16T12:25:21;15.40;99.90
12720;DHT22;6424;48.520;11.228;2024-02-16T12:28:05;15.40;99.90
12720;DHT22;6424;48.520;11.228;2024-02-16T12:30:49;15.40;99.90
12720;DHT22;6424;48.520;11.228;2024-02-16T12:33:33;15.40;99.90
12720;DHT22;6424;48.520;11.228;2024-02-16T12:36:18;15.50;99.90
12720;DHT22;6424;48.520;11.228;2024-02-16T12:39:03;15.50;99.90
12720;DHT22;6424;48.520;11.228;2024-02-16T12:41:50;15.50;99.90
12720;DHT22;6424;48.520;11.228;2024-02-16T12:44:34;15.40;99.90
12720;DHT22;6424;48.520;11.228;2024-02-16T12:47:19;15.40;99.90
12720;DHT22;6424;48.520;11.228;2024-02-16T12:50:04;15.40;99.90
12720;DHT22;6424;48.520;11.228;2024-02-16T12:52:49;15.40;99.90
12720;DHT22;6424;48.520;11.228;2024-02-16T12:55:33;15.40;99.90
12720;DHT22;6424;48.520;11.228;2024-02-16T12:58:18;15.30;99.90
12720;DHT22;6424;48.520;11.228;2024-02-16T13:01:06;15.30;99.90
12720;DHT22;6424;48.520;11.228;2024-02-16T13:03:50;15.30;99.90
12720;DHT22;6424;48.520;11.228;2024-02-16T13:06:35;15.30;99.90
12720;DHT22;6424;48.520;11.228;2024-02-16T13:09:21;15.20;99.90
12720;DHT22;6424;48.520;11.228;2024-02-16T13:12:05;15.20;99.90
12720;DHT22;6424;48.520;11.228;2024-02-16T13:14:50;15.20;99.90
12720;DHT22;6424;48.520;11.228;2024-02-16T13:17:34;15.10;99.90
12720;DHT22;6424;48.520;11.228;2024-02-16T13:20:18;15.00;99.90
12720;DHT22;6424;48.520;11.228;2024-02-16T13:23:03;15.10;99.90
12720;DHT22;6424;48.520;11.228;2024-02-16T13:25:47;15.00;99.90
12720;DHT22;6424;48.520;11.228;2024-02-16T13:28:32;15.00;99.90
12720;DHT22;6424;48.520;11.228;2024-02-16T13:31:17;14.90;99.90
12720;DHT22;6424;48.520;11.228;2024-02-16T13:34:01;15.00;99.90
12720;DHT22;6424;48.520;11.228;2024-02-16T13:36:45;15.00;99.90
12720;DHT22;6424;48.520;11.228;2024-02-16T13:39:29;15.00;99.90
12720;DHT22;6424;48.520;11.228;2024-02-16T13:42:14;15.00;99.90
12720;DHT22;6424;48.520;11.228;2024-02-16T13:44:58;15.00;99.90
12720;DHT22;6424;48.520;11.228;2024-02-16T13:47:42;15.00;99.90
12720;DHT22;6424;48.520;11.228;2024-02-16T13:50:27;15.00;99.90
12720;DHT22;6424;48.520;11.228;2024-02-16T13:53:12;15.10;99.90
12720;DHT22;6424;48.520;11.228;2024-02-16T13:55:56;15.10;99.90
12720;DHT22;6424;48.520;11.228;2024-02-16T13:58:44;15.10;99.90
12720;DHT22;6424;48.520;11.228;2024-02-16T14:01:31;15.10;99.90
12720;DHT22;6424;48.520;11.228;2024-02-16T14:04:16;15.10;99.90
12720;DHT22;6424;48.520;11.228;2024-02-16T14:07:00;15.10;99.90
12720;DHT22;6424;48.520;11.228;2024-02-16T14:09:44;15.10;99.90
12720;DHT22;6424;48.520;11.228;2024-02-16T14:12:28;15.10;99.90
12720;DHT22;6424;48.520;11.228;2024-02-16T14:15:13;15.10;99.90
12720;DHT22;6424;48.520;11.228;2024-02-16T14:18:00;15.10;99.90
12720;DHT22;6424;48.520;11.228;2024-02-16T14:20:44;15.10;99.90
12720;DHT22;6424;48.520;11.228;2024-02-16T14:23:29;15.10;99.90
12720;DHT22;6424;48.520;11.228;2024-02-16T14:26:14;15.10;99.90
12720;DHT22;6424;48.520;11.228;2024-02-16T14:28:58;15.10;99.90
12720;DHT22;6424;48.520;11.228;2024-02-16T14:31:42;15.10;99.90
12720;DHT22;6424;48.520;11.228;2024-02-16T14:34:26;15.10;99.90
12720;DHT22;6424;48.520;11.228;2024-02-16T14:37:11;15.00;99.90
12720;DHT22;6424;48.520;11.228;2024-02-16T14:39:55;15.00;99.90
12720;DHT22;6424;48.520;11.228;2024-02-16T14:42:42;14.90;99.90
12720;DHT22;6424;48.520;11.228;2024-02-16T14:45:26;14.80;99.90
12720;DHT22;6424;48.520;11.228;2024-02-16T14:48:10;14.80;99.90
12720;DHT22;6424;48.520;11.228;2024-02-16T14:50:56;14.70;99.90
12720;DHT22;6424;48.520;11.228;2024-02-16T14:53:41;14.60;99.90
12720;DHT22;6424;48.520;11.228;2024-02-16T14:56:26;14.60;99.90
12720;DHT22;6424;48.520;11.228;2024-02-16T14:59:10;14.60;99.90
12720;DHT22;6424;48.520;11.228;2024-02-16T15:01:55;14.60;99.90
12720;DHT22;6424;48.520;11.228;2024-02-16T15:04:40;14.50;99.90
12720;DHT22;6424;48.520;11.228;2024-02-16T15:07:24;14.50;99.90
12720;DHT22;6424;48.520;11.228;2024-02-16T15:10:09;14.40;99.90
12720;DHT22;6424;48.520;11.228;2024-02-16T15:12:54;14.40;99.90
12720;DHT22;6424;48.520;11.228;2024-02-16T15:15:38;14.30;99.90
12720;DHT22;6424;48.520;11.228;2024-02-16T15:18:23;14.30;99.90
12720;DHT22;6424;48.520;11.228;2024-02-16T15:21:07;14.30;99.90
12720;DHT22;6424;48.520;11.228;2024-02-16T15:23:51;14.20;99.90
12720;DHT22;6424;48.520;11.228;2024-02-16T15:26:36;14.20;99.90
12720;DHT22;6424;48.520;11.228;2024-02-16T15:29:19;14.20;99.90
12720;DHT22;6424;48.520;11.228;2024-02-16T15:32:04;14.10;99.90
12720;DHT22;6424;48.520;11.228;2024-02-16T15:34:49;14.00;99.90
12720;DHT22;6424;48.520;11.228;2024-02-16T15:37:37;14.00;99.90
12720;DHT22;6424;48.520;11.228;2024-02-16T15:40:21;13.90;99.90
12720;DHT22;6424;48.520;11.228;2024-02-16T15:43:06;13.90;99.90
12720;DHT22;6424;48.520;11.228;2024-02-16T15:45:52;13.80;99.90
12720;DHT22;6424;48.520;11.228;2024-02-16T15:48:36;13.70;99.90
12720;DHT22;6424;48.520;11.228;2024-02-16T15:51:21;13.70;99.90
12720;DHT22;6424;48.520;11.228;2024-02-16T15:54:06;13.60;99.90
12720;DHT22;6424;48.520;11.228;2024-02-16T15:56:50;13.50;99.90
12720;DHT22;6424;48.520;11.228;2024-02-16T15:59:34;13.40;99.90
12720;DHT22;6424;48.520;11.228;2024-02-16T16:02:19;13.40;99.90
12720;DHT22;6424;48.520;11.228;2024-02-16T16:05:03;13.30;99.90
12720;DHT22;6424;48.520;11.228;2024-02-16T16:07:47;13.20;99.90
12720;DHT22;6424;48.520;11.228;2024-02-16T16:10:31;13.10;99.90
12720;DHT22;6424;48.520;11.228;2024-02-16T16:13:16;13.00;99.90
12720;DHT22;6424;48.520;11.228;2024-02-16T16:16:00;13.00;99.90
12720;DHT22;6424;48.520;11.228;2024-02-16T16:18:44;12.90;99.90
12720;DHT22;6424;48.520;11.228;2024-02-16T16:21:28;12.90;99.90
12720;DHT22;6424;48.520;11.228;2024-02-16T16:24:13;12.80;99.90
12720;DHT22;6424;48.520;11.228;2024-02-16T16:26:57;12.70;99.90
12720;DHT22;6424;48.520;11.228;2024-02-16T16:29:41;12.70;99.90
12720;DHT22;6424;48.520;11.228;2024-02-16T16:32:26;12.60;99.90
12720;DHT22;6424;48.520;11.228;2024-02-16T16:35:10;12.60;99.90
12720;DHT22;6424;48.520;11.228;2024-02-16T16:37:55;12.50;99.90
12720;DHT22;6424;48.520;11.228;2024-02-16T16:40:39;12.50;99.90
12720;DHT22;6424;48.520;11.228;2024-02-16T16:43:23;12.50;99.90
12720;DHT22;6424;48.520;11.228;2024-02-16T16:46:08;12.50;99.90
12720;DHT22;6424;48.520;11.228;2024-02-16T16:48:52;12.40;99.90
12720;DHT22;6424;48.520;11.228;2024-02-16T16:51:36;12.30;99.90
12720;DHT22;6424;48.520;11.228;2024-02-16T16:54:21;12.20;99.90
12720;DHT22;6424;48.520;11.228;2024-02-16T16:57:06;12.10;99.90
12720;DHT22;6424;48.520;11.228;2024-02-16T16:59:50;12.00;99.90
12720;DHT22;6424;48.520;11.228;2024-02-16T17:02:34;12.00;99.90
12720;DHT22;6424;48.520;11.228;2024-02-16T17:05:18;11.90;99.90
12720;DHT22;6424;48.520;11.228;2024-02-16T17:08:03;11.80;99.90
12720;DHT22;6424;48.520;11.228;2024-02-16T17:10:47;11.70;99.90
12720;DHT22;6424;48.520;11.228;2024-02-16T17:13:32;11.60;99.90
12720;DHT22;6424;48.520;11.228;2024-02-16T17:16:17;11.60;99.90
12720;DHT22;6424;48.520;11.228;2024-02-16T17:19:01;11.50;99.90
12720;DHT22;6424;48.520;11.228;2024-02-16T17:21:46;11.40;99.90
12720;DHT22;6424;48.520;11.228;2024-02-16T17:24:31;11.40;99.90
12720;DHT22;6424;48.520;11.228;2024-02-16T17:27:15;11.40;99.90
12720;DHT22;6424;48.520;11.228;2024-02-16T17:30:02;11.40;99.90
12720;DHT22;6424;48.520;11.228;2024-02-16T17:32:47;11.40;99.90
12720;DHT22;6424;48.520;11.228;2024-02-16T17:35:32;11.30;99.90
12720;DHT22;6424;48.520;11.228;2024-02-16T17:38:17;11.40;99.90